Decoded Metar for KAMG (ALMA in GA, USA) (IATA:AMG) | Meteo·Mobile Aviation Weather
aviador You're here:

KAMG Decoded Metar

ALMA in GA, USA
Report Time2019-02-16 06:53:00
UTC Time2019-02-16 07:29:28
Flight Rules vfr VFR
Wind210° at 04 kt
W.Decomp.*RWY 15: 1.7 kt HW 3.6 kt RCW
W.Rank210° ranks 1
Current wind is below 210° avg. (5.8)
Visibility9999 m
Phenomena:N/A
Clouds:Overcast 100 Hf
Expected CloudBase > 3,200 ft AGL from Temp-Dew spread
Ceiling10,000 ft
Temp16°C (ISA +1)
Dew Point08°C (59% RH)
AAT14.1°C
QNH1011 hPa
Density Alt571 ft
Elevation194 ft
Report Wrong Elevation
Raw Report
METAR KAMG 160653Z AUTO 21004KT 10SM OVC100 16/08 A2986 RMK AO2 SLP110
T01560078=

Extra information for KAMG:More info

Metar Taf Metar & Taf Last 4 Metars F.Rules Stats Wind Profile Meteogram Temp Stats Airport Information Weather charts Add Link Nearby VenuesMetar ALERT Operation Metar Decoded Social comments

AIRNAV info for KAMG